Time;durP1;ratioP1;P1;durP2;ratioP2;P2;SDS_P1;SDS_P2;PMS_P1;PMS_P2;Temp;Humidity;BMP_temperature;BMP_pressure;BME280_temperature;BME280_humidity;BME280_pressure;Samples;Min_cycle;Max_cycle;Signal;HPM_P1;HPM_P2
2021/07/06 00:00:22;;;;;;;13.13;8.00;;;16.60;99.90;;;;;;4951025;28;20217;-90
2021/07/06 00:02:50;;;;;;;10.83;7.00;;;16.60;99.90;;;;;;4967005;28;20675;-92
2021/07/06 00:05:17;;;;;;;10.27;6.93;;;16.60;99.90;;;;;;4951249;28;20636;-92
2021/07/06 00:07:42;;;;;;;12.20;6.53;;;16.60;99.90;;;;;;4952923;28;20189;-92
2021/07/06 00:10:10;;;;;;;12.97;6.47;;;16.50;99.90;;;;;;4967371;28;20227;-92
2021/07/06 00:12:36;;;;;;;8.93;6.63;;;16.50;99.90;;;;;;4951834;28;20584;-92
2021/07/06 00:15:04;;;;;;;8.30;5.70;;;16.40;99.90;;;;;;4967350;28;20224;-92
2021/07/06 00:17:30;;;;;;;10.00;6.73;;;16.40;99.90;;;;;;4950544;28;20580;-92
2021/07/06 00:19:55;;;;;;;12.70;7.47;;;16.40;99.90;;;;;;4951920;29;20185;-93
2021/07/06 00:22:21;;;;;;;12.30;6.67;;;16.40;99.90;;;;;;4950843;28;20221;-91
2021/07/06 00:24:48;;;;;;;10.50;6.87;;;16.40;99.90;;;;;;4950792;28;20292;-91
2021/07/06 00:27:13;;;;;;;13.13;7.67;;;16.40;99.90;;;;;;4950599;28;20253;-91
2021/07/06 00:29:39;;;;;;;10.03;7.13;;;16.40;99.90;;;;;;4950423;28;20240;-91
2021/07/06 00:32:05;;;;;;;8.13;6.23;;;16.40;99.90;;;;;;4950861;29;20695;-93
2021/07/06 00:34:31;;;;;;;15.03;7.50;;;16.40;99.90;;;;;;4966608;28;20217;-93
2021/07/06 00:36:57;;;;;;;9.53;6.63;;;16.40;99.90;;;;;;4966388;28;20715;-92
2021/07/06 00:39:23;;;;;;;12.00;6.63;;;16.50;99.90;;;;;;4966553;28;20221;-93
2021/07/06 00:41:48;;;;;;;11.77;6.27;;;16.50;99.90;;;;;;4950487;28;20272;-93
2021/07/06 00:44:16;;;;;;;12.20;6.67;;;16.40;99.90;;;;;;4966586;28;20209;-92
2021/07/06 00:46:42;;;;;;;9.23;6.40;;;16.50;99.90;;;;;;4967117;28;20181;-93
2021/07/06 00:49:08;;;;;;;7.90;5.77;;;16.50;99.90;;;;;;4951418;28;20223;-92
2021/07/06 00:51:34;;;;;;;10.57;7.27;;;16.50;99.90;;;;;;4950128;28;20217;-92
2021/07/06 00:54:00;;;;;;;10.87;7.17;;;16.50;99.90;;;;;;4950091;28;20516;-93
2021/07/06 00:56:29;;;;;;;8.10;5.70;;;16.50;99.90;;;;;;4950451;28;20184;-94
2021/07/06 00:58:55;;;;;;;11.93;7.70;;;16.50;99.90;;;;;;4967054;28;20177;-93
2021/07/06 01:01:21;;;;;;;11.87;6.80;;;16.50;99.90;;;;;;4951208;28;20812;-94
2021/07/06 01:03:47;;;;;;;9.97;5.83;;;16.50;99.90;;;;;;4951019;28;20219;-94
2021/07/06 01:06:13;;;;;;;13.03;7.27;;;16.50;99.90;;;;;;4949845;28;20213;-93
2021/07/06 01:08:39;;;;;;;9.73;7.00;;;16.50;99.90;;;;;;4950961;28;20216;-94
2021/07/06 01:11:06;;;;;;;10.03;6.97;;;16.40;99.90;;;;;;4950852;28;20371;-93
2021/07/06 01:13:34;;;;;;;8.93;6.33;;;16.40;99.90;;;;;;4965714;28;20233;-93
2021/07/06 01:16:00;;;;;;;12.53;8.03;;;16.40;99.90;;;;;;4949950;28;20225;-95
2021/07/06 01:18:26;;;;;;;11.13;6.40;;;16.40;99.90;;;;;;4965914;28;20241;-92
2021/07/06 01:20:55;;;;;;;10.20;6.97;;;16.40;99.90;;;;;;4950799;28;20288;-93
2021/07/06 01:23:23;;;;;;;11.50;6.30;;;16.40;99.90;;;;;;4965989;28;20395;-93
2021/07/06 01:25:53;;;;;;;9.90;5.83;;;16.40;99.90;;;;;;4966225;28;20672;-93
2021/07/06 01:28:19;;;;;;;8.10;5.67;;;16.40;99.90;;;;;;4965767;28;20225;-92
2021/07/06 01:30:45;;;;;;;9.87;7.20;;;16.40;99.90;;;;;;4949911;28;20221;-91
2021/07/06 01:33:17;;;;;;;10.87;6.43;;;16.50;99.90;;;;;;4950817;28;20353;-92
2021/07/06 01:35:43;;;;;;;13.00;6.70;;;16.50;99.90;;;;;;4965888;28;20216;-93
2021/07/06 01:38:09;;;;;;;10.00;6.33;;;16.50;99.90;;;;;;4966371;28;20181;-92
2021/07/06 01:40:34;;;;;;;11.17;6.37;;;16.50;99.90;;;;;;4949437;28;20221;-91
2021/07/06 01:43:01;;;;;;;12.67;7.60;;;16.50;99.90;;;;;;4965728;28;20221;-91
2021/07/06 01:45:29;;;;;;;12.00;6.83;;;16.60;99.90;;;;;;4950799;28;20369;-92
2021/07/06 01:48:00;;;;;;;11.90;6.43;;;16.60;99.90;;;;;;4950718;28;20268;-90
2021/07/06 01:50:28;;;;;;;11.40;8.20;;;16.60;99.90;;;;;;4965425;28;20174;-92
2021/07/06 01:52:56;;;;;;;11.13;6.73;;;16.70;99.90;;;;;;4951229;28;20211;-91
2021/07/06 01:55:27;;;;;;;14.63;6.60;;;16.70;99.90;;;;;;4965907;28;20225;-90
2021/07/06 01:57:56;;;;;;;15.53;6.27;;;16.70;99.90;;;;;;4950719;28;20700;-92
2021/07/06 02:00:24;;;;;;;11.50;7.53;;;16.80;99.90;;;;;;4950867;28;20247;-91
2021/07/06 02:02:50;;;;;;;9.07;6.03;;;16.80;99.90;;;;;;4950784;28;20221;-91
2021/07/06 02:05:19;;;;;;;11.00;6.23;;;16.80;99.90;;;;;;4966911;28;20658;-90
2021/07/06 02:07:48;;;;;;;11.87;6.77;;;16.80;99.90;;;;;;4955036;28;20189;-91
2021/07/06 02:10:15;;;;;;;10.10;6.13;;;16.80;99.90;;;;;;4969560;28;20682;-90
2021/07/06 02:12:41;;;;;;;7.70;5.97;;;16.90;99.90;;;;;;4953029;28;20312;-93
2021/07/06 02:15:11;;;;;;;11.73;7.63;;;16.90;99.90;;;;;;4954226;28;20299;-92
2021/07/06 02:17:37;;;;;;;9.47;5.77;;;16.90;99.90;;;;;;4969125;28;20237;-92
2021/07/06 02:20:09;;;;;;;12.23;5.70;;;17.00;99.90;;;;;;4953821;28;20257;-92
2021/07/06 02:22:36;;;;;;;9.73;6.30;;;17.00;99.90;;;;;;4968961;28;20579;-92
2021/07/06 02:25:03;;;;;;;9.80;6.37;;;17.00;99.90;;;;;;4954068;28;20939;-92
2021/07/06 02:27:29;;;;;;;12.87;6.53;;;17.00;99.90;;;;;;4953800;28;20228;-91
2021/07/06 02:29:55;;;;;;;8.47;6.10;;;17.00;99.90;;;;;;4968790;28;20393;-93
2021/07/06 02:32:21;;;;;;;10.10;6.97;;;16.90;99.90;;;;;;4952618;28;20236;-91
2021/07/06 02:34:47;;;;;;;9.53;6.90;;;16.90;99.90;;;;;;4969650;28;20177;-92
2021/07/06 02:37:12;;;;;;;9.97;7.07;;;16.90;99.90;;;;;;4969048;28;20405;-92
2021/07/06 02:39:39;;;;;;;8.63;5.57;;;16.90;99.90;;;;;;4952655;28;20678;-91
2021/07/06 02:42:05;;;;;;;9.23;5.80;;;16.90;99.90;;;;;;4952854;28;20228;-92
2021/07/06 02:44:30;;;;;;;8.80;5.10;;;16.80;99.90;;;;;;4952976;28;20190;-91
2021/07/06 02:46:56;;;;;;;6.50;5.30;;;16.80;99.90;;;;;;4953201;29;20388;-91
2021/07/06 02:49:22;;;;;;;8.27;6.23;;;16.90;99.90;;;;;;4953227;28;20292;-92
2021/07/06 02:51:47;;;;;;;12.37;7.23;;;16.90;99.90;;;;;;4952685;28;20280;-92
2021/07/06 02:54:13;;;;;;;9.63;6.07;;;16.90;99.90;;;;;;4951826;28;20224;-92
2021/07/06 02:56:39;;;;;;;11.60;6.63;;;16.90;99.90;;;;;;4951800;28;20248;-92
2021/07/06 02:59:04;;;;;;;10.83;5.97;;;16.90;99.90;;;;;;4952502;28;20205;-92
2021/07/06 03:01:30;;;;;;;9.97;6.03;;;16.90;99.90;;;;;;4952301;28;20233;-92
2021/07/06 03:03:57;;;;;;;10.87;6.83;;;16.90;99.90;;;;;;4968315;28;20746;-92
2021/07/06 03:06:23;;;;;;;12.20;6.40;;;16.90;99.90;;;;;;4953190;28;20684;-91
2021/07/06 03:08:52;;;;;;;10.33;7.30;;;17.00;99.90;;;;;;4952242;28;20223;-91
2021/07/06 03:11:17;;;;;;;8.83;6.70;;;17.00;99.90;;;;;;4952343;28;20241;-90
2021/07/06 03:13:43;;;;;;;14.17;5.97;;;17.00;99.90;;;;;;4952787;28;20300;-92
2021/07/06 03:16:09;;;;;;;9.47;6.33;;;17.00;99.90;;;;;;4951592;28;20427;-91
2021/07/06 03:18:35;;;;;;;10.70;6.57;;;17.00;99.90;;;;;;4951962;28;20586;-91
2021/07/06 03:21:00;;;;;;;10.23;6.10;;;17.00;99.90;;;;;;4952038;28;20590;-92
2021/07/06 03:23:28;;;;;;;8.73;5.40;;;17.00;99.90;;;;;;4952143;28;20185;-91
2021/07/06 03:25:54;;;;;;;11.57;6.53;;;17.10;99.90;;;;;;4968537;28;20177;-92
2021/07/06 03:28:19;;;;;;;9.93;6.67;;;17.00;99.90;;;;;;4967834;28;20336;-92
2021/07/06 03:30:45;;;;;;;8.67;5.93;;;17.00;99.90;;;;;;4967840;28;20233;-90
2021/07/06 03:33:11;;;;;;;7.50;4.83;;;17.00;99.90;;;;;;4953146;28;20241;-92
2021/07/06 03:35:38;;;;;;;11.60;6.43;;;16.90;99.90;;;;;;4968009;28;20312;-92
2021/07/06 03:38:05;;;;;;;12.00;6.90;;;16.90;99.90;;;;;;4952303;28;20245;-91
2021/07/06 03:40:31;;;;;;;7.50;5.60;;;16.90;99.90;;;;;;4952802;28;20213;-93
2021/07/06 03:42:57;;;;;;;10.10;5.67;;;16.90;99.90;;;;;;4951445;28;20691;-90
2021/07/06 03:45:24;;;;;;;8.83;6.30;;;17.00;99.90;;;;;;4951506;28;20279;-91
2021/07/06 03:47:50;;;;;;;8.57;5.23;;;17.00;99.90;;;;;;4967582;28;20237;-91
2021/07/06 03:50:19;;;;;;;9.87;6.67;;;17.00;99.90;;;;;;4952920;28;20244;-91
2021/07/06 03:52:50;;;;;;;9.80;5.33;;;17.00;99.90;;;;;;4952602;28;20224;-91
2021/07/06 03:55:16;;;;;;;7.37;4.87;;;17.00;99.90;;;;;;4952436;28;20217;-91
2021/07/06 03:57:43;;;;;;;8.33;5.77;;;17.10;99.90;;;;;;4951992;28;20225;-90
2021/07/06 04:00:15;;;;;;;9.83;5.63;;;17.10;99.90;;;;;;4951743;28;20228;-91
2021/07/06 04:02:41;;;;;;;5.30;3.97;;;17.10;99.90;;;;;;4967162;28;20244;-91
2021/07/06 04:05:08;;;;;;;8.13;5.10;;;17.20;99.90;;;;;;4967154;28;20177;-90
2021/07/06 04:07:35;;;;;;;4.60;3.57;;;17.20;99.90;;;;;;4966863;28;20225;-91
2021/07/06 04:10:03;;;;;;;8.70;5.03;;;17.30;99.90;;;;;;4950461;28;20668;-91
2021/07/06 04:12:29;;;;;;;8.37;3.93;;;17.30;99.90;;;;;;4950458;28;20236;-91
2021/07/06 04:14:54;;;;;;;9.07;4.67;;;17.30;99.90;;;;;;4950171;28;20218;-93
2021/07/06 04:17:20;;;;;;;5.67;3.57;;;17.40;99.90;;;;;;4951085;28;20289;-89
2021/07/06 04:19:46;;;;;;;5.90;3.53;;;17.40;99.90;;;;;;4951033;28;20193;-91
2021/07/06 04:22:12;;;;;;;5.43;3.90;;;17.40;99.90;;;;;;4967077;28;20303;-91
2021/07/06 04:24:37;;;;;;;5.53;3.73;;;17.50;99.90;;;;;;4950788;28;20221;-92
2021/07/06 04:27:03;;;;;;;5.37;3.87;;;17.50;99.90;;;;;;4950601;28;20217;-92
2021/07/06 04:29:29;;;;;;;5.90;4.10;;;17.60;99.90;;;;;;4949888;28;20208;-92
2021/07/06 04:31:55;;;;;;;5.87;3.67;;;17.60;99.90;;;;;;4950347;29;20209;-93
2021/07/06 04:34:22;;;;;;;6.97;4.33;;;17.70;99.90;;;;;;4950923;28;20220;-92
2021/07/06 04:36:48;;;;;;;4.93;4.00;;;17.70;99.90;;;;;;4949785;28;20217;-90
2021/07/06 04:39:13;;;;;;;3.37;2.87;;;17.70;99.90;;;;;;4966018;28;20268;-92
2021/07/06 04:41:40;;;;;;;9.63;3.30;;;17.80;99.90;;;;;;4949523;28;20224;-91
2021/07/06 04:44:05;;;;;;;6.77;3.80;;;17.90;99.90;;;;;;4950882;28;20276;-92
2021/07/06 04:46:31;;;;;;;3.37;2.67;;;17.90;99.90;;;;;;4949763;28;20623;-94
2021/07/06 04:48:57;;;;;;;5.73;3.73;;;18.00;99.90;;;;;;4965684;28;20596;-92
2021/07/06 04:51:22;;;;;;;6.00;3.50;;;17.90;99.90;;;;;;4950041;28;20213;-92
2021/07/06 04:53:48;;;;;;;4.87;3.37;;;17.90;99.90;;;;;;4949303;28;20686;-92
2021/07/06 04:56:14;;;;;;;7.13;3.23;;;17.80;99.90;;;;;;4949192;28;20185;-91
2021/07/06 04:58:40;;;;;;;5.93;3.37;;;17.80;99.90;;;;;;4949694;28;20193;-93
2021/07/06 05:01:08;;;;;;;7.80;3.27;;;17.70;99.90;;;;;;4965201;28;20227;-92
2021/07/06 05:03:34;;;;;;;5.00;3.37;;;17.70;99.90;;;;;;4965390;28;20236;-92
2021/07/06 05:06:00;;;;;;;4.73;3.90;;;17.70;99.90;;;;;;4949189;28;20224;-92
2021/07/06 05:08:26;;;;;;;3.80;2.80;;;17.80;99.90;;;;;;4949358;28;20207;-91
2021/07/06 05:10:52;;;;;;;3.67;2.90;;;17.70;99.90;;;;;;4948667;29;20211;-92
2021/07/06 05:13:18;;;;;;;5.07;3.90;;;17.80;99.90;;;;;;4949113;28;20695;-92
2021/07/06 05:15:45;;;;;;;6.13;2.80;;;17.70;99.90;;;;;;4949829;28;20556;-92
2021/07/06 05:18:11;;;;;;;3.63;2.90;;;17.80;99.90;;;;;;4949911;28;20233;-92
2021/07/06 05:20:37;;;;;;;4.33;2.93;;;17.80;99.90;;;;;;4951017;28;20280;-92
2021/07/06 05:23:03;;;;;;;3.90;2.63;;;17.80;99.90;;;;;;4951611;28;20192;-92
2021/07/06 05:25:29;;;;;;;3.27;2.97;;;17.80;99.90;;;;;;4950071;28;20642;-91
2021/07/06 05:27:55;;;;;;;5.63;2.93;;;17.80;99.90;;;;;;4951014;28;20224;-92
2021/07/06 05:30:21;;;;;;;3.57;2.43;;;17.80;99.90;;;;;;4949781;28;20697;-92
2021/07/06 05:32:47;;;;;;;3.60;2.37;;;17.90;99.90;;;;;;4950857;28;20275;-92
2021/07/06 05:35:14;;;;;;;2.93;2.00;;;17.90;99.90;;;;;;4950085;28;20194;-93
2021/07/06 05:37:40;;;;;;;5.00;3.10;;;17.90;99.90;;;;;;4966604;28;20181;-94
2021/07/06 05:40:08;;;;;;;2.77;2.10;;;17.90;99.90;;;;;;4950073;28;20229;-92
2021/07/06 05:42:35;;;;;;;3.67;2.83;;;17.90;99.90;;;;;;4965812;28;20268;-93
2021/07/06 05:45:01;;;;;;;3.30;2.20;;;18.00;99.90;;;;;;4965079;28;20231;-88
2021/07/06 05:47:27;;;;;;;2.30;2.07;;;18.00;99.90;;;;;;4949271;28;20587;-89
2021/07/06 05:49:53;;;;;;;2.83;2.33;;;18.00;99.90;;;;;;4949259;29;20185;-91
2021/07/06 05:52:19;;;;;;;3.30;1.83;;;18.10;99.90;;;;;;4948925;28;20237;-91
2021/07/06 05:54:45;;;;;;;3.30;2.67;;;18.10;99.90;;;;;;4965015;28;20229;-90
2021/07/06 05:57:10;;;;;;;2.90;2.60;;;18.20;99.90;;;;;;4949046;28;20299;-89
2021/07/06 05:59:36;;;;;;;3.07;2.07;;;18.20;99.90;;;;;;4948737;28;20304;-90
2021/07/06 06:02:02;;;;;;;2.53;1.67;;;18.20;99.90;;;;;;4949528;28;20198;-91
2021/07/06 06:04:28;;;;;;;2.23;1.97;;;18.30;99.90;;;;;;4948899;28;20664;-91
2021/07/06 06:06:54;;;;;;;3.27;2.03;;;18.30;99.90;;;;;;4965027;28;20221;-91
2021/07/06 06:09:19;;;;;;;2.10;1.83;;;18.30;99.90;;;;;;4949729;28;20217;-91
2021/07/06 06:11:45;;;;;;;2.47;1.47;;;18.30;99.90;;;;;;4950384;28;20228;-91
2021/07/06 06:14:11;;;;;;;2.33;2.07;;;18.30;99.90;;;;;;4950092;28;20185;-91
2021/07/06 06:16:37;;;;;;;1.10;1.00;;;18.20;99.90;;;;;;4965359;28;20217;-89
2021/07/06 06:19:04;;;;;;;1.53;1.40;;;18.30;99.90;;;;;;4964706;28;20316;-90
2021/07/06 06:21:32;;;;;;;1.47;1.37;;;18.40;99.90;;;;;;4949455;28;20217;-87
2021/07/06 06:23:58;;;;;;;2.53;1.57;;;18.40;99.90;;;;;;4964402;28;20299;-92
2021/07/06 06:26:24;;;;;;;2.07;1.30;;;18.40;99.90;;;;;;4948816;28;20286;-90
2021/07/06 06:28:50;;;;;;;5.03;1.37;;;18.30;99.90;;;;;;4950134;28;20644;-90
2021/07/06 06:31:17;;;;;;;3.00;1.33;;;18.40;99.90;;;;;;4965087;28;20226;-90
2021/07/06 06:33:43;;;;;;;1.40;1.30;;;18.40;99.90;;;;;;4964876;28;20504;-90
2021/07/06 06:36:10;;;;;;;1.70;1.20;;;18.40;99.90;;;;;;4949287;28;20421;-90
2021/07/06 06:38:35;;;;;;;1.23;1.13;;;18.50;99.90;;;;;;4948937;28;20224;-92
2021/07/06 06:41:01;;;;;;;1.90;1.40;;;18.60;99.90;;;;;;4949274;29;20620;-90
2021/07/06 06:43:27;;;;;;;2.07;1.60;;;18.70;99.90;;;;;;4948802;28;20714;-90
2021/07/06 06:45:53;;;;;;;1.30;1.20;;;18.70;99.90;;;;;;4948822;28;20232;-91
2021/07/06 06:48:18;;;;;;;2.07;1.37;;;18.80;99.90;;;;;;4950084;28;20308;-89
2021/07/06 06:50:44;;;;;;;1.63;1.53;;;18.90;99.90;;;;;;4948977;28;20217;-90
2021/07/06 06:53:10;;;;;;;1.63;1.40;;;18.90;99.90;;;;;;4968984;28;20586;-90
2021/07/06 06:55:36;;;;;;;1.53;1.27;;;19.00;99.90;;;;;;4953206;28;20305;-91
2021/07/06 06:58:01;;;;;;;1.73;1.30;;;19.10;99.90;;;;;;4952257;28;20224;-91
2021/07/06 07:00:28;;;;;;;3.87;1.93;;;19.10;99.90;;;;;;4952112;28;20308;-91
2021/07/06 07:02:55;;;;;;;1.97;1.50;;;19.20;99.90;;;;;;4953458;28;20216;-91
2021/07/06 07:05:21;;;;;;;3.37;2.00;;;19.30;99.90;;;;;;4952299;28;20185;-91
2021/07/06 07:07:46;;;;;;;1.50;1.33;;;19.30;99.90;;;;;;4952559;29;20192;-91
2021/07/06 07:10:13;;;;;;;1.90;1.40;;;19.30;99.90;;;;;;4951827;28;20376;-91
2021/07/06 07:12:42;;;;;;;2.07;1.93;;;19.30;99.90;;;;;;4951824;28;20225;-88
2021/07/06 07:15:10;;;;;;;2.10;1.47;;;19.40;99.90;;;;;;4951966;28;20213;-93
2021/07/06 07:17:37;;;;;;;1.37;1.27;;;19.40;99.90;;;;;;4953139;28;20233;-93
2021/07/06 07:20:10;;;;;;;1.97;1.67;;;19.50;99.90;;;;;;4952675;28;20193;-91
2021/07/06 07:22:35;;;;;;;2.10;1.90;;;19.60;99.90;;;;;;4953043;28;20508;-90
2021/07/06 07:25:02;;;;;;;2.63;1.63;;;19.60;99.90;;;;;;4952077;28;20287;-92
2021/07/06 07:27:27;;;;;;;2.70;1.50;;;19.50;99.90;;;;;;4952019;28;20217;-91
2021/07/06 07:29:53;;;;;;;1.70;1.47;;;19.60;99.90;;;;;;4951916;28;20224;-90
2021/07/06 07:32:19;;;;;;;2.53;1.70;;;19.70;99.90;;;;;;4951609;28;20598;-90
2021/07/06 07:34:45;;;;;;;2.70;1.60;;;19.80;99.90;;;;;;4952072;28;20186;-91
2021/07/06 07:37:10;;;;;;;1.40;1.20;;;19.70;99.90;;;;;;4951569;28;20727;-92
2021/07/06 07:39:37;;;;;;;3.30;2.20;;;19.80;99.90;;;;;;4952452;28;20229;-94
2021/07/06 07:42:05;;;;;;;1.97;1.53;;;19.90;99.90;;;;;;4952047;28;20232;-92
2021/07/06 07:44:31;;;;;;;1.80;1.70;;;19.90;99.90;;;;;;4968044;28;20177;-91
2021/07/06 07:46:57;;;;;;;4.47;1.80;;;20.10;99.90;;;;;;4951713;29;20185;-92
2021/07/06 07:49:23;;;;;;;1.80;1.70;;;20.20;99.90;;;;;;4951146;28;20308;-90
2021/07/06 07:51:49;;;;;;;2.73;1.47;;;20.40;99.90;;;;;;4952484;28;20296;-91
2021/07/06 07:54:15;;;;;;;3.63;1.50;;;20.50;99.90;;;;;;4951105;28;20264;-90
2021/07/06 07:56:41;;;;;;;3.07;1.70;;;20.70;99.90;;;;;;4966983;28;20217;-91
2021/07/06 07:59:11;;;;;;;1.90;1.70;;;20.80;99.90;;;;;;4951706;28;20181;-90
2021/07/06 08:01:37;;;;;;;1.37;1.27;;;21.00;99.90;;;;;;4951066;29;20206;-94
2021/07/06 08:04:03;;;;;;;2.00;1.67;;;21.20;99.90;;;;;;4967149;28;20301;-91
2021/07/06 08:06:29;;;;;;;2.73;1.57;;;21.30;99.90;;;;;;4967250;28;20680;-93
2021/07/06 08:08:55;;;;;;;2.87;1.53;;;21.20;99.90;;;;;;4967361;28;20217;-92
2021/07/06 08:11:22;;;;;;;1.43;1.07;;;21.20;99.90;;;;;;4951071;28;20190;-93
2021/07/06 08:13:47;;;;;;;1.50;1.40;;;21.30;99.90;;;;;;4951785;29;20252;-94
2021/07/06 08:16:14;;;;;;;3.63;1.60;;;21.30;99.90;;;;;;4951978;28;20225;-92
2021/07/06 08:18:40;;;;;;;3.07;1.73;;;21.40;99.90;;;;;;4967094;28;20237;-93
2021/07/06 08:21:06;;;;;;;3.50;1.60;;;21.70;99.90;;;;;;4951207;28;20236;-92
2021/07/06 08:23:32;;;;;;;2.13;1.57;;;22.00;99.90;;;;;;4966891;28;20225;-92
2021/07/06 08:25:58;;;;;;;1.40;1.30;;;22.20;99.90;;;;;;4951398;29;20177;-92
2021/07/06 08:28:26;;;;;;;1.50;1.17;;;22.30;99.90;;;;;;4967045;28;20280;-93
2021/07/06 08:30:52;;;;;;;1.33;1.27;;;22.50;99.90;;;;;;4951394;28;20292;-92
2021/07/06 08:33:18;;;;;;;4.07;1.43;;;22.80;99.90;;;;;;4950912;28;20368;-93
2021/07/06 08:35:44;;;;;;;2.03;1.63;;;23.40;99.90;;;;;;4951328;28;20752;-92
2021/07/06 08:38:11;;;;;;;2.30;1.15;;;24.10;99.90;;;;;;4951474;28;20185;-90
2021/07/06 08:40:37;;;;;;;3.33;1.52;;;25.00;99.90;;;;;;4966850;28;20209;-95
2021/07/06 08:43:04;;;;;;;2.00;1.80;;;24.70;99.90;;;;;;4967016;28;20221;-93
2021/07/06 08:45:30;;;;;;;2.88;1.80;;;24.80;99.90;;;;;;4968550;28;20232;-91
2021/07/06 08:47:56;;;;;;;1.50;1.40;;;25.70;99.90;;;;;;4950547;28;20217;-92
2021/07/06 08:50:23;;;;;;;2.15;1.77;;;25.60;99.90;;;;;;4950564;28;20181;-92
2021/07/06 08:52:49;;;;;;;1.67;1.50;;;25.30;99.90;;;;;;4952353;28;20209;-93
2021/07/06 08:55:16;;;;;;;4.45;1.40;;;25.50;99.90;;;;;;4950677;28;20294;-94
2021/07/06 08:57:44;;;;;;;2.90;1.83;;;26.00;99.90;;;;;;4966478;28;20291;-90
2021/07/06 09:00:12;;;;;;;1.58;1.48;;;26.10;99.90;;;;;;4966535;28;20221;-93
2021/07/06 09:02:38;;;;;;;2.53;1.70;;;25.00;99.90;;;;;;4950494;28;20301;-93
2021/07/06 09:05:04;;;;;;;1.50;1.40;;;24.00;99.90;;;;;;4950231;29;20197;-93
2021/07/06 09:07:41;;;;;;;1.27;1.25;;;23.40;99.90;;;;;;4950141;28;20568;-92
2021/07/06 09:10:18;;;;;;;1.20;1.17;;;22.60;99.90;;;;;;4966229;28;20403;-92
2021/07/06 09:12:46;;;;;;;1.52;1.42;;;22.30;99.90;;;;;;4951422;28;20236;-91
2021/07/06 09:15:19;;;;;;;1.42;1.33;;;22.10;99.90;;;;;;4965802;28;20217;-92
2021/07/06 09:17:45;;;;;;;1.50;1.40;;;22.10;99.90;;;;;;4965948;28;20233;-92
2021/07/06 09:20:11;;;;;;;2.55;1.40;;;21.90;99.90;;;;;;4950695;28;20181;-90
2021/07/06 09:22:37;;;;;;;1.83;1.33;;;21.90;99.90;;;;;;4950470;28;20205;-91
2021/07/06 09:25:05;;;;;;;2.08;1.50;;;21.90;99.90;;;;;;4949742;28;20830;-93
2021/07/06 09:27:33;;;;;;;3.60;1.40;;;22.20;99.90;;;;;;4950374;28;20221;-92
2021/07/06 09:30:08;;;;;;;1.60;1.20;;;22.30;99.90;;;;;;4965554;28;20221;-91
2021/07/06 09:32:35;;;;;;;4.23;1.60;;;22.10;99.90;;;;;;4965909;28;20229;-90
2021/07/06 09:35:09;;;;;;;3.90;1.70;;;22.10;99.90;;;;;;4949924;28;20188;-91
2021/07/06 09:37:46;;;;;;;4.10;1.90;;;22.10;99.90;;;;;;4966105;28;20224;-90
2021/07/06 09:40:31;;;;;;;4.13;1.40;;;22.40;99.90;;;;;;4950266;28;20213;-92
2021/07/06 09:43:16;;;;;;;1.30;1.20;;;22.20;99.90;;;;;;4950617;28;20287;-91
2021/07/06 09:45:46;;;;;;;1.80;1.20;;;22.70;99.90;;;;;;4966699;28;20228;-94
2021/07/06 09:48:12;;;;;;;2.23;1.60;;;23.90;99.90;;;;;;4951034;28;20221;-94
2021/07/06 09:50:38;;;;;;;2.08;1.70;;;25.10;99.90;;;;;;4949315;28;20751;-93
2021/07/06 09:53:04;;;;;;;2.45;1.45;;;25.90;99.90;;;;;;4949880;29;20299;-92
2021/07/06 09:55:31;;;;;;;1.50;1.38;;;26.90;99.90;;;;;;4949663;28;20684;-92
2021/07/06 09:57:57;;;;;;;3.75;1.58;;;27.40;99.90;;;;;;4965589;28;20217;-92
2021/07/06 10:00:23;;;;;;;2.28;1.50;;;27.30;99.90;;;;;;4949618;28;20213;-93
2021/07/06 10:02:57;;;;;;;1.35;1.10;;;26.50;99.90;;;;;;4949163;28;20229;-94
2021/07/06 10:05:24;;;;;;;1.48;1.38;;;24.50;99.90;;;;;;4949729;28;20197;-92
2021/07/06 10:07:50;;;;;;;1.85;1.40;;;23.30;99.90;;;;;;4950129;28;20185;-93
2021/07/06 10:10:16;;;;;;;1.90;1.67;;;23.30;99.90;;;;;;4950604;28;20220;-93
2021/07/06 10:12:48;;;;;;;1.98;1.80;;;23.60;99.90;;;;;;4951322;28;20225;-96
2021/07/06 10:15:16;;;;;;;2.17;1.77;;;24.60;99.90;;;;;;4952155;28;20735;-94
2021/07/06 10:17:43;;;;;;;2.08;1.98;;;25.60;99.90;;;;;;4951444;28;20230;-94
2021/07/06 10:20:12;;;;;;;3.72;1.77;;;26.60;99.90;;;;;;4954051;28;20193;-94
2021/07/06 10:22:38;;;;;;;2.65;1.55;;;26.90;99.90;;;;;;4968093;28;20215;-95
2021/07/06 10:25:08;;;;;;;1.48;1.38;;;26.10;99.90;;;;;;4966610;28;20217;-93
2021/07/06 10:27:37;;;;;;;5.57;1.40;;;25.50;99.90;;;;;;4954987;28;20252;-93
2021/07/06 10:30:15;;;;;;;2.25;1.42;;;24.50;99.90;;;;;;4957156;28;20292;-94
2021/07/06 10:32:43;;;;;;;1.40;1.27;;;23.60;99.90;;;;;;4971168;28;20240;-94
2021/07/06 10:35:14;;;;;;;2.13;1.48;;;23.20;99.90;;;;;;4974364;28;20185;-95
2021/07/06 10:37:41;;;;;;;2.22;1.10;;;23.20;99.90;;;;;;4972545;28;20478;-93
2021/07/06 10:40:20;;;;;;;3.28;1.52;;;22.80;99.90;;;;;;4954546;28;20221;-95
2021/07/06 10:42:50;;;;;;;2.90;1.80;;;22.80;99.90;;;;;;4970792;28;20221;-93
2021/07/06 10:45:32;;;;;;;2.03;1.30;;;22.70;99.90;;;;;;4955602;28;20228;-91
2021/07/06 10:47:58;;;;;;;2.15;1.75;;;22.40;99.90;;;;;;4970412;28;20725;-95
2021/07/06 10:50:30;;;;;;;1.70;1.52;;;23.10;99.90;;;;;;4969682;28;20268;-94
2021/07/06 10:53:17;;;;;;;1.52;1.40;;;23.30;99.90;;;;;;4970168;28;20212;-93
2021/07/06 10:55:45;;;;;;;1.95;1.52;;;23.60;99.90;;;;;;4954867;28;20221;-94
2021/07/06 10:58:10;;;;;;;2.78;1.50;;;23.00;99.90;;;;;;4953109;28;20284;-93
2021/07/06 11:00:42;;;;;;;1.85;1.75;;;23.00;99.90;;;;;;4969850;28;20221;-92
2021/07/06 11:03:18;;;;;;;3.03;1.67;;;23.00;99.90;;;;;;4952980;28;20229;-93
2021/07/06 11:05:45;;;;;;;3.10;1.20;;;22.90;99.90;;;;;;4954462;28;20213;-93
2021/07/06 11:08:40;;;;;;;2.40;1.10;;;23.20;99.90;;;;;;4954618;28;20204;-92
2021/07/06 11:11:06;;;;;;;0.98;0.77;;;23.30;99.90;;;;;;4969304;28;20236;-91
2021/07/06 11:13:32;;;;;;;1.10;0.93;;;23.50;99.90;;;;;;4952727;28;20221;-92
2021/07/06 11:16:01;;;;;;;3.00;0.80;;;23.80;99.90;;;;;;4953047;28;20706;-91
2021/07/06 11:18:42;;;;;;;0.80;0.80;;;24.10;99.90;;;;;;4968607;28;20592;-91
2021/07/06 11:21:31;;;;;;;1.75;1.08;;;24.00;99.90;;;;;;4969064;28;20225;-91
2021/07/06 11:24:11;;;;;;;5.72;1.00;;;24.10;99.90;;;;;;4968515;28;20217;-91
2021/07/06 11:26:43;;;;;;;9.32;1.45;;;24.00;99.90;;;;;;4953656;28;20209;-92
2021/07/06 11:29:09;;;;;;;0.90;0.90;;;24.00;99.90;;;;;;4954142;28;20182;-92
2021/07/06 11:31:35;;;;;;;4.38;1.10;;;24.10;99.90;;;;;;4968671;28;20638;-88
2021/07/06 11:34:04;;;;;;;1.30;0.93;;;24.10;99.90;;;;;;4952055;28;20634;-90
2021/07/06 11:36:30;;;;;;;4.70;1.65;;;23.90;99.90;;;;;;4952433;28;20706;-88
2021/07/06 11:38:58;;;;;;;1.67;0.93;;;24.30;99.90;;;;;;4951635;28;20300;-91
2021/07/06 11:41:26;;;;;;;3.20;1.30;;;24.20;99.90;;;;;;4952153;28;20259;-88
2021/07/06 11:43:52;;;;;;;0.77;0.77;;;23.50;99.90;;;;;;4968348;28;20277;-91
2021/07/06 11:46:22;;;;;;;8.20;1.38;;;23.40;99.90;;;;;;4952306;28;20655;-91
2021/07/06 11:48:48;;;;;;;2.47;0.95;;;23.40;99.90;;;;;;4952117;28;20723;-90
2021/07/06 11:51:17;;;;;;;8.55;1.90;;;23.40;99.90;;;;;;4952757;28;20221;-90
2021/07/06 11:53:45;;;;;;;2.40;1.13;;;23.90;99.90;;;;;;4967457;28;20225;-88
2021/07/06 11:56:12;;;;;;;4.40;1.35;;;23.90;99.90;;;;;;4951302;28;20493;-89
2021/07/06 11:58:38;;;;;;;2.88;1.00;;;23.70;99.90;;;;;;4951601;29;20221;-88
2021/07/06 12:01:10;;;;;;;3.33;1.00;;;23.70;99.90;;;;;;4952149;28;20326;-89
2021/07/06 12:03:37;;;;;;;1.52;0.90;;;23.60;99.90;;;;;;4967157;28;20268;-89
2021/07/06 12:06:11;;;;;;;5.72;1.10;;;23.70;99.90;;;;;;4967077;28;20225;-90
2021/07/06 12:08:42;;;;;;;7.03;1.33;;;23.50;99.90;;;;;;4967293;28;20212;-90
2021/07/06 12:11:10;;;;;;;1.90;1.25;;;23.80;99.90;;;;;;4968652;28;20178;-92
2021/07/06 12:13:39;;;;;;;2.08;1.38;;;23.80;99.90;;;;;;4952502;28;20617;-90
2021/07/06 12:16:08;;;;;;;2.33;0.70;;;24.20;99.90;;;;;;4952995;28;20225;-94
2021/07/06 12:18:35;;;;;;;2.85;0.70;;;23.80;99.90;;;;;;4951201;28;20655;-91
2021/07/06 12:21:08;;;;;;;3.95;0.77;;;23.60;99.90;;;;;;4951075;28;20221;-93
2021/07/06 12:23:44;;;;;;;2.55;0.80;;;23.50;99.90;;;;;;4951898;28;20217;-91
2021/07/06 12:26:11;;;;;;;4.93;0.70;;;23.60;99.90;;;;;;4952193;28;20776;-90
2021/07/06 12:28:40;;;;;;;3.70;0.68;;;23.70;99.90;;;;;;4967180;28;20213;-91
2021/07/06 12:31:22;;;;;;;2.63;0.88;;;23.50;99.90;;;;;;4951330;28;20248;-89
2021/07/06 12:34:06;;;;;;;1.98;0.70;;;23.60;99.90;;;;;;4966058;28;20308;-92
2021/07/06 12:36:56;;;;;;;2.88;1.13;;;23.90;99.90;;;;;;4965269;28;20221;-89
2021/07/06 12:39:39;;;;;;;1.38;0.85;;;23.80;99.90;;;;;;4965084;28;20221;-88
2021/07/06 12:42:11;;;;;;;1.95;1.05;;;23.30;99.90;;;;;;4950278;28;20433;-88
2021/07/06 12:44:51;;;;;;;0.73;0.73;;;23.00;99.90;;;;;;4950872;28;20213;-88
2021/07/06 12:47:33;;;;;;;7.55;1.17;;;22.90;99.90;;;;;;4949093;28;20183;-88